sensor_id;sensor_type;location;lat;lon;timestamp;P1;durP1;ratioP1;P2;durP2;ratioP2
13061;SDS011;6597;52.218;9.882;2022-10-26T00:00:23;9.73;;;5.17;;
13061;SDS011;6597;52.218;9.882;2022-10-26T00:02:49;8.33;;;5.17;;
13061;SDS011;6597;52.218;9.882;2022-10-26T00:05:16;8.77;;;4.57;;
13061;SDS011;6597;52.218;9.882;2022-10-26T00:07:42;6.17;;;3.93;;
13061;SDS011;6597;52.218;9.882;2022-10-26T00:10:09;8.00;;;3.93;;
13061;SDS011;6597;52.218;9.882;2022-10-26T00:12:35;7.10;;;3.73;;
13061;SDS011;6597;52.218;9.882;2022-10-26T00:15:03;9.00;;;3.43;;
13061;SDS011;6597;52.218;9.882;2022-10-26T00:17:31;6.57;;;3.77;;
13061;SDS011;6597;52.218;9.882;2022-10-26T00:19:57;5.33;;;3.80;;
13061;SDS011;6597;52.218;9.882;2022-10-26T00:22:24;5.20;;;3.60;;
13061;SDS011;6597;52.218;9.882;2022-10-26T00:24:51;5.63;;;3.60;;
13061;SDS011;6597;52.218;9.882;2022-10-26T00:27:17;5.37;;;3.73;;
13061;SDS011;6597;52.218;9.882;2022-10-26T00:29:44;6.27;;;3.70;;
13061;SDS011;6597;52.218;9.882;2022-10-26T00:32:12;8.87;;;4.10;;
13061;SDS011;6597;52.218;9.882;2022-10-26T00:34:39;5.70;;;3.23;;
13061;SDS011;6597;52.218;9.882;2022-10-26T00:37:05;4.73;;;3.47;;
13061;SDS011;6597;52.218;9.882;2022-10-26T00:39:32;5.83;;;3.40;;
13061;SDS011;6597;52.218;9.882;2022-10-26T00:41:58;7.40;;;3.53;;
13061;SDS011;6597;52.218;9.882;2022-10-26T00:44:43;4.57;;;3.40;;
13061;SDS011;6597;52.218;9.882;2022-10-26T00:47:24;11.40;;;3.67;;
13061;SDS011;6597;52.218;9.882;2022-10-26T00:49:59;5.73;;;3.63;;
13061;SDS011;6597;52.218;9.882;2022-10-26T00:52:29;4.83;;;3.27;;
13061;SDS011;6597;52.218;9.882;2022-10-26T00:54:55;4.90;;;3.37;;
13061;SDS011;6597;52.218;9.882;2022-10-26T00:57:22;9.23;;;3.60;;
13061;SDS011;6597;52.218;9.882;2022-10-26T00:59:49;6.30;;;3.57;;
13061;SDS011;6597;52.218;9.882;2022-10-26T01:02:18;6.80;;;3.17;;
13061;SDS011;6597;52.218;9.882;2022-10-26T01:04:47;3.83;;;3.10;;
13061;SDS011;6597;52.218;9.882;2022-10-26T01:07:13;6.33;;;3.10;;
13061;SDS011;6597;52.218;9.882;2022-10-26T01:09:40;3.60;;;2.83;;
13061;SDS011;6597;52.218;9.882;2022-10-26T01:12:07;5.33;;;3.67;;
13061;SDS011;6597;52.218;9.882;2022-10-26T01:14:33;5.10;;;2.77;;
13061;SDS011;6597;52.218;9.882;2022-10-26T01:17:01;5.87;;;3.53;;
13061;SDS011;6597;52.218;9.882;2022-10-26T01:22:37;4.40;;;3.43;;
13061;SDS011;6597;52.218;9.882;2022-10-26T01:25:11;5.57;;;3.67;;
13061;SDS011;6597;52.218;9.882;2022-10-26T01:27:49;5.30;;;3.10;;
13061;SDS011;6597;52.218;9.882;2022-10-26T01:33:09;6.20;;;3.27;;
13061;SDS011;6597;52.218;9.882;2022-10-26T01:35:59;6.27;;;3.73;;
13061;SDS011;6597;52.218;9.882;2022-10-26T01:38:32;6.97;;;3.50;;
13061;SDS011;6597;52.218;9.882;2022-10-26T01:41:05;5.60;;;3.30;;
13061;SDS011;6597;52.218;9.882;2022-10-26T01:43:38;6.40;;;3.80;;
13061;SDS011;6597;52.218;9.882;2022-10-26T01:46:08;6.80;;;3.47;;
13061;SDS011;6597;52.218;9.882;2022-10-26T01:48:36;6.13;;;3.90;;
13061;SDS011;6597;52.218;9.882;2022-10-26T01:51:05;6.90;;;3.50;;
13061;SDS011;6597;52.218;9.882;2022-10-26T01:53:34;5.47;;;3.77;;
13061;SDS011;6597;52.218;9.882;2022-10-26T01:56:01;6.20;;;3.60;;
13061;SDS011;6597;52.218;9.882;2022-10-26T01:58:35;5.87;;;3.57;;
13061;SDS011;6597;52.218;9.882;2022-10-26T02:01:18;6.03;;;2.90;;
13061;SDS011;6597;52.218;9.882;2022-10-26T02:04:02;4.27;;;3.10;;
13061;SDS011;6597;52.218;9.882;2022-10-26T02:06:35;6.73;;;3.60;;
13061;SDS011;6597;52.218;9.882;2022-10-26T02:09:12;6.67;;;3.40;;
13061;SDS011;6597;52.218;9.882;2022-10-26T02:11:45;7.00;;;3.23;;
13061;SDS011;6597;52.218;9.882;2022-10-26T02:14:17;6.03;;;3.33;;
13061;SDS011;6597;52.218;9.882;2022-10-26T02:16:51;6.50;;;3.70;;
13061;SDS011;6597;52.218;9.882;2022-10-26T02:22:11;4.23;;;3.23;;
13061;SDS011;6597;52.218;9.882;2022-10-26T02:24:41;5.30;;;2.77;;
13061;SDS011;6597;52.218;9.882;2022-10-26T02:27:17;4.60;;;3.00;;
13061;SDS011;6597;52.218;9.882;2022-10-26T02:29:48;5.87;;;3.67;;
13061;SDS011;6597;52.218;9.882;2022-10-26T02:32:18;9.23;;;3.67;;
13061;SDS011;6597;52.218;9.882;2022-10-26T02:34:47;6.33;;;3.73;;
13061;SDS011;6597;52.218;9.882;2022-10-26T02:37:17;5.07;;;3.03;;
13061;SDS011;6597;52.218;9.882;2022-10-26T02:39:47;6.60;;;3.40;;
13061;SDS011;6597;52.218;9.882;2022-10-26T02:42:16;4.70;;;3.40;;
13061;SDS011;6597;52.218;9.882;2022-10-26T02:44:45;3.70;;;2.80;;
13061;SDS011;6597;52.218;9.882;2022-10-26T02:47:16;6.00;;;2.93;;
13061;SDS011;6597;52.218;9.882;2022-10-26T02:49:46;6.20;;;2.63;;
13061;SDS011;6597;52.218;9.882;2022-10-26T02:52:15;4.37;;;2.77;;
13061;SDS011;6597;52.218;9.882;2022-10-26T02:54:49;3.47;;;2.70;;
13061;SDS011;6597;52.218;9.882;2022-10-26T02:57:19;3.40;;;2.67;;
13061;SDS011;6597;52.218;9.882;2022-10-26T02:59:50;5.93;;;3.17;;
13061;SDS011;6597;52.218;9.882;2022-10-26T03:02:20;7.00;;;2.80;;
13061;SDS011;6597;52.218;9.882;2022-10-26T03:04:48;4.13;;;2.83;;
13061;SDS011;6597;52.218;9.882;2022-10-26T03:07:19;2.97;;;2.10;;
13061;SDS011;6597;52.218;9.882;2022-10-26T03:09:46;4.77;;;2.67;;
13061;SDS011;6597;52.218;9.882;2022-10-26T03:12:12;4.50;;;2.97;;
13061;SDS011;6597;52.218;9.882;2022-10-26T03:14:39;2.90;;;2.27;;
13061;SDS011;6597;52.218;9.882;2022-10-26T03:17:06;3.40;;;2.30;;
13061;SDS011;6597;52.218;9.882;2022-10-26T03:19:34;3.70;;;2.40;;
13061;SDS011;6597;52.218;9.882;2022-10-26T03:22:01;5.37;;;2.83;;
13061;SDS011;6597;52.218;9.882;2022-10-26T03:24:27;5.63;;;3.03;;
13061;SDS011;6597;52.218;9.882;2022-10-26T03:26:54;3.90;;;2.77;;
13061;SDS011;6597;52.218;9.882;2022-10-26T03:29:20;4.90;;;3.00;;
13061;SDS011;6597;52.218;9.882;2022-10-26T03:31:47;3.47;;;2.40;;
13061;SDS011;6597;52.218;9.882;2022-10-26T03:34:18;4.37;;;2.83;;
13061;SDS011;6597;52.218;9.882;2022-10-26T03:36:46;4.93;;;2.90;;
13061;SDS011;6597;52.218;9.882;2022-10-26T03:39:12;3.87;;;2.80;;
13061;SDS011;6597;52.218;9.882;2022-10-26T03:41:39;6.47;;;3.40;;
13061;SDS011;6597;52.218;9.882;2022-10-26T03:44:05;6.63;;;3.33;;
13061;SDS011;6597;52.218;9.882;2022-10-26T03:46:32;6.30;;;3.40;;
13061;SDS011;6597;52.218;9.882;2022-10-26T03:48:58;8.30;;;3.27;;
13061;SDS011;6597;52.218;9.882;2022-10-26T03:51:25;4.93;;;3.10;;
13061;SDS011;6597;52.218;9.882;2022-10-26T03:53:53;4.83;;;3.20;;
13061;SDS011;6597;52.218;9.882;2022-10-26T03:56:20;4.40;;;3.10;;
13061;SDS011;6597;52.218;9.882;2022-10-26T03:58:46;10.37;;;3.90;;
13061;SDS011;6597;52.218;9.882;2022-10-26T04:01:13;5.93;;;2.83;;
13061;SDS011;6597;52.218;9.882;2022-10-26T04:03:39;3.80;;;3.10;;
13061;SDS011;6597;52.218;9.882;2022-10-26T04:06:06;5.87;;;3.33;;
13061;SDS011;6597;52.218;9.882;2022-10-26T04:08:32;5.23;;;3.27;;
13061;SDS011;6597;52.218;9.882;2022-10-26T04:11:00;8.17;;;4.03;;
13061;SDS011;6597;52.218;9.882;2022-10-26T04:13:27;6.57;;;3.77;;
13061;SDS011;6597;52.218;9.882;2022-10-26T04:15:53;6.00;;;3.70;;
13061;SDS011;6597;52.218;9.882;2022-10-26T04:18:20;5.23;;;3.50;;
13061;SDS011;6597;52.218;9.882;2022-10-26T04:20:46;6.73;;;3.30;;
13061;SDS011;6597;52.218;9.882;2022-10-26T04:23:14;5.60;;;3.53;;
13061;SDS011;6597;52.218;9.882;2022-10-26T04:25:41;9.17;;;3.77;;
13061;SDS011;6597;52.218;9.882;2022-10-26T04:28:12;6.20;;;3.53;;
13061;SDS011;6597;52.218;9.882;2022-10-26T04:30:39;5.60;;;3.10;;
13061;SDS011;6597;52.218;9.882;2022-10-26T04:33:06;4.17;;;3.20;;
13061;SDS011;6597;52.218;9.882;2022-10-26T04:35:33;6.23;;;3.20;;
13061;SDS011;6597;52.218;9.882;2022-10-26T04:38:00;8.37;;;3.63;;
13061;SDS011;6597;52.218;9.882;2022-10-26T04:40:28;5.90;;;3.10;;
13061;SDS011;6597;52.218;9.882;2022-10-26T04:42:56;4.67;;;3.30;;
13061;SDS011;6597;52.218;9.882;2022-10-26T04:45:24;4.77;;;3.57;;
13061;SDS011;6597;52.218;9.882;2022-10-26T04:47:59;4.40;;;2.67;;
13061;SDS011;6597;52.218;9.882;2022-10-26T04:50:27;5.33;;;3.37;;
13061;SDS011;6597;52.218;9.882;2022-10-26T04:52:53;4.03;;;3.00;;
13061;SDS011;6597;52.218;9.882;2022-10-26T04:55:20;4.13;;;3.00;;
13061;SDS011;6597;52.218;9.882;2022-10-26T04:57:46;4.90;;;2.90;;
13061;SDS011;6597;52.218;9.882;2022-10-26T05:00:13;9.23;;;3.27;;
13061;SDS011;6597;52.218;9.882;2022-10-26T05:02:41;5.93;;;3.20;;
13061;SDS011;6597;52.218;9.882;2022-10-26T05:05:08;4.37;;;2.60;;
13061;SDS011;6597;52.218;9.882;2022-10-26T05:07:34;13.07;;;3.00;;
13061;SDS011;6597;52.218;9.882;2022-10-26T05:10:01;4.50;;;2.87;;
13061;SDS011;6597;52.218;9.882;2022-10-26T05:12:28;8.17;;;3.20;;
13061;SDS011;6597;52.218;9.882;2022-10-26T05:14:55;7.83;;;2.67;;
13061;SDS011;6597;52.218;9.882;2022-10-26T05:17:23;4.77;;;3.03;;
13061;SDS011;6597;52.218;9.882;2022-10-26T05:19:51;9.80;;;2.60;;
13061;SDS011;6597;52.218;9.882;2022-10-26T05:22:19;4.70;;;2.63;;
13061;SDS011;6597;52.218;9.882;2022-10-26T05:24:46;3.93;;;2.57;;
13061;SDS011;6597;52.218;9.882;2022-10-26T05:27:13;5.47;;;2.73;;
13061;SDS011;6597;52.218;9.882;2022-10-26T05:29:39;9.70;;;3.27;;
13061;SDS011;6597;52.218;9.882;2022-10-26T05:32:06;5.50;;;3.40;;
13061;SDS011;6597;52.218;9.882;2022-10-26T05:34:32;4.37;;;2.80;;
13061;SDS011;6597;52.218;9.882;2022-10-26T05:37:00;4.23;;;2.50;;
13061;SDS011;6597;52.218;9.882;2022-10-26T05:39:26;8.23;;;2.70;;
13061;SDS011;6597;52.218;9.882;2022-10-26T05:41:53;6.10;;;3.07;;
13061;SDS011;6597;52.218;9.882;2022-10-26T05:44:20;3.97;;;2.90;;
13061;SDS011;6597;52.218;9.882;2022-10-26T05:46:46;4.00;;;2.77;;
13061;SDS011;6597;52.218;9.882;2022-10-26T05:49:13;3.97;;;3.10;;
13061;SDS011;6597;52.218;9.882;2022-10-26T05:51:39;3.70;;;2.70;;
13061;SDS011;6597;52.218;9.882;2022-10-26T05:54:07;4.07;;;2.70;;
13061;SDS011;6597;52.218;9.882;2022-10-26T05:56:34;6.00;;;2.77;;
13061;SDS011;6597;52.218;9.882;2022-10-26T05:59:03;8.87;;;2.77;;
13061;SDS011;6597;52.218;9.882;2022-10-26T06:01:32;7.77;;;2.70;;
13061;SDS011;6597;52.218;9.882;2022-10-26T06:04:09;8.97;;;3.17;;
13061;SDS011;6597;52.218;9.882;2022-10-26T06:06:46;8.00;;;2.83;;
13061;SDS011;6597;52.218;9.882;2022-10-26T06:09:19;4.17;;;3.10;;
13061;SDS011;6597;52.218;9.882;2022-10-26T06:11:47;5.13;;;3.10;;
13061;SDS011;6597;52.218;9.882;2022-10-26T06:14:13;5.87;;;2.97;;
13061;SDS011;6597;52.218;9.882;2022-10-26T06:16:45;3.00;;;2.40;;
13061;SDS011;6597;52.218;9.882;2022-10-26T06:19:25;4.50;;;3.20;;
13061;SDS011;6597;52.218;9.882;2022-10-26T06:22:02;4.80;;;3.30;;
13061;SDS011;6597;52.218;9.882;2022-10-26T06:24:41;4.93;;;3.87;;
13061;SDS011;6597;52.218;9.882;2022-10-26T06:27:17;5.30;;;3.23;;
13061;SDS011;6597;52.218;9.882;2022-10-26T06:29:54;9.00;;;4.40;;
13061;SDS011;6597;52.218;9.882;2022-10-26T06:32:25;6.30;;;3.97;;
13061;SDS011;6597;52.218;9.882;2022-10-26T06:35:00;11.90;;;4.20;;
13061;SDS011;6597;52.218;9.882;2022-10-26T06:37:38;8.30;;;3.90;;
13061;SDS011;6597;52.218;9.882;2022-10-26T06:40:09;10.67;;;4.47;;
13061;SDS011;6597;52.218;9.882;2022-10-26T06:42:39;5.27;;;3.63;;
13061;SDS011;6597;52.218;9.882;2022-10-26T06:45:09;6.57;;;3.37;;
13061;SDS011;6597;52.218;9.882;2022-10-26T06:47:37;7.03;;;3.47;;
13061;SDS011;6597;52.218;9.882;2022-10-26T06:50:12;5.03;;;3.50;;
13061;SDS011;6597;52.218;9.882;2022-10-26T06:52:54;7.33;;;4.10;;
13061;SDS011;6597;52.218;9.882;2022-10-26T06:55:31;7.63;;;3.97;;
13061;SDS011;6597;52.218;9.882;2022-10-26T06:58:04;12.67;;;4.17;;
13061;SDS011;6597;52.218;9.882;2022-10-26T07:00:36;8.03;;;4.30;;
13061;SDS011;6597;52.218;9.882;2022-10-26T07:03:05;8.10;;;3.80;;
13061;SDS011;6597;52.218;9.882;2022-10-26T07:05:32;10.20;;;4.57;;
13061;SDS011;6597;52.218;9.882;2022-10-26T07:07:58;7.93;;;4.10;;
13061;SDS011;6597;52.218;9.882;2022-10-26T07:10:25;10.97;;;4.17;;
13061;SDS011;6597;52.218;9.882;2022-10-26T07:12:53;5.87;;;3.87;;
13061;SDS011;6597;52.218;9.882;2022-10-26T07:15:19;5.23;;;3.57;;
13061;SDS011;6597;52.218;9.882;2022-10-26T07:17:46;8.77;;;3.13;;
13061;SDS011;6597;52.218;9.882;2022-10-26T07:20:14;3.50;;;2.47;;
13061;SDS011;6597;52.218;9.882;2022-10-26T07:22:41;5.23;;;2.23;;
13061;SDS011;6597;52.218;9.882;2022-10-26T07:25:08;5.00;;;2.03;;
13061;SDS011;6597;52.218;9.882;2022-10-26T07:27:36;16.87;;;7.20;;
13061;SDS011;6597;52.218;9.882;2022-10-26T07:30:05;12.30;;;5.40;;
13061;SDS011;6597;52.218;9.882;2022-10-26T07:32:32;10.13;;;4.50;;
13061;SDS011;6597;52.218;9.882;2022-10-26T07:34:58;6.85;;;4.13;;
13061;SDS011;6597;52.218;9.882;2022-10-26T07:37:25;10.25;;;4.28;;
13061;SDS011;6597;52.218;9.882;2022-10-26T07:39:51;8.67;;;5.00;;
13061;SDS011;6597;52.218;9.882;2022-10-26T07:42:18;10.57;;;4.03;;
13061;SDS011;6597;52.218;9.882;2022-10-26T07:44:44;9.53;;;4.40;;
13061;SDS011;6597;52.218;9.882;2022-10-26T07:47:12;5.27;;;3.20;;
13061;SDS011;6597;52.218;9.882;2022-10-26T07:49:39;6.30;;;3.00;;
13061;SDS011;6597;52.218;9.882;2022-10-26T07:52:05;4.33;;;2.40;;
13061;SDS011;6597;52.218;9.882;2022-10-26T07:54:32;2.60;;;1.97;;
13061;SDS011;6597;52.218;9.882;2022-10-26T07:56:58;12.53;;;2.03;;
13061;SDS011;6597;52.218;9.882;2022-10-26T07:59:25;2.80;;;1.97;;
13061;SDS011;6597;52.218;9.882;2022-10-26T08:01:52;8.90;;;2.47;;
13061;SDS011;6597;52.218;9.882;2022-10-26T08:04:19;2.87;;;2.23;;
13061;SDS011;6597;52.218;9.882;2022-10-26T08:06:46;6.60;;;3.03;;
13061;SDS011;6597;52.218;9.882;2022-10-26T08:09:12;6.70;;;2.63;;
13061;SDS011;6597;52.218;9.882;2022-10-26T08:11:39;3.13;;;1.90;;
13061;SDS011;6597;52.218;9.882;2022-10-26T08:14:06;5.90;;;2.13;;
13061;SDS011;6597;52.218;9.882;2022-10-26T08:16:32;3.40;;;2.30;;
13061;SDS011;6597;52.218;9.882;2022-10-26T08:18:59;4.80;;;2.50;;
13061;SDS011;6597;52.218;9.882;2022-10-26T08:21:27;4.10;;;2.70;;
13061;SDS011;6597;52.218;9.882;2022-10-26T08:23:53;4.40;;;2.53;;
13061;SDS011;6597;52.218;9.882;2022-10-26T08:26:20;6.20;;;2.53;;
13061;SDS011;6597;52.218;9.882;2022-10-26T08:28:47;4.30;;;2.33;;
13061;SDS011;6597;52.218;9.882;2022-10-26T08:31:14;7.90;;;2.73;;
13061;SDS011;6597;52.218;9.882;2022-10-26T08:33:40;3.40;;;2.50;;
13061;SDS011;6597;52.218;9.882;2022-10-26T08:36:07;4.20;;;2.53;;
13061;SDS011;6597;52.218;9.882;2022-10-26T08:38:35;5.57;;;2.50;;
13061;SDS011;6597;52.218;9.882;2022-10-26T08:41:04;3.03;;;2.13;;
13061;SDS011;6597;52.218;9.882;2022-10-26T08:43:33;3.53;;;2.73;;
13061;SDS011;6597;52.218;9.882;2022-10-26T08:46:07;3.00;;;2.30;;
13061;SDS011;6597;52.218;9.882;2022-10-26T08:48:39;8.07;;;2.80;;
13061;SDS011;6597;52.218;9.882;2022-10-26T08:51:10;4.53;;;2.67;;
13061;SDS011;6597;52.218;9.882;2022-10-26T08:53:41;4.53;;;2.53;;
13061;SDS011;6597;52.218;9.882;2022-10-26T08:56:14;6.27;;;2.73;;
13061;SDS011;6597;52.218;9.882;2022-10-26T08:58:44;5.10;;;3.00;;
13061;SDS011;6597;52.218;9.882;2022-10-26T09:01:14;3.57;;;2.33;;
13061;SDS011;6597;52.218;9.882;2022-10-26T09:03:42;5.10;;;2.87;;
13061;SDS011;6597;52.218;9.882;2022-10-26T09:06:14;5.17;;;3.00;;
13061;SDS011;6597;52.218;9.882;2022-10-26T09:08:50;5.63;;;2.83;;
13061;SDS011;6597;52.218;9.882;2022-10-26T09:11:27;7.33;;;3.40;;
13061;SDS011;6597;52.218;9.882;2022-10-26T09:14:08;7.37;;;3.23;;
13061;SDS011;6597;52.218;9.882;2022-10-26T09:16:46;4.80;;;2.83;;
13061;SDS011;6597;52.218;9.882;2022-10-26T09:19:32;6.07;;;2.90;;
13061;SDS011;6597;52.218;9.882;2022-10-26T09:22:11;3.60;;;2.00;;
13061;SDS011;6597;52.218;9.882;2022-10-26T09:24:48;6.73;;;2.17;;
13061;SDS011;6597;52.218;9.882;2022-10-26T09:27:18;2.95;;;1.67;;
13061;SDS011;6597;52.218;9.882;2022-10-26T09:29:49;4.18;;;1.63;;
13061;SDS011;6597;52.218;9.882;2022-10-26T09:32:17;3.13;;;1.77;;
13061;SDS011;6597;52.218;9.882;2022-10-26T09:34:47;4.70;;;1.88;;
13061;SDS011;6597;52.218;9.882;2022-10-26T09:37:17;3.70;;;1.63;;
13061;SDS011;6597;52.218;9.882;2022-10-26T09:39:50;3.03;;;1.38;;
13061;SDS011;6597;52.218;9.882;2022-10-26T09:42:24;1.45;;;1.17;;
13061;SDS011;6597;52.218;9.882;2022-10-26T09:44:56;2.30;;;1.20;;
13061;SDS011;6597;52.218;9.882;2022-10-26T09:47:28;4.15;;;1.60;;
13061;SDS011;6597;52.218;9.882;2022-10-26T09:50:01;4.05;;;1.90;;
13061;SDS011;6597;52.218;9.882;2022-10-26T09:52:32;1.88;;;1.50;;
13061;SDS011;6597;52.218;9.882;2022-10-26T09:55:00;3.92;;;1.90;;
13061;SDS011;6597;52.218;9.882;2022-10-26T09:57:26;3.50;;;2.00;;
13061;SDS011;6597;52.218;9.882;2022-10-26T09:59:53;1.73;;;1.38;;
13061;SDS011;6597;52.218;9.882;2022-10-26T10:02:33;3.83;;;1.55;;
13061;SDS011;6597;52.218;9.882;2022-10-26T10:05:01;2.15;;;1.50;;
13061;SDS011;6597;52.218;9.882;2022-10-26T10:07:28;3.38;;;1.90;;
13061;SDS011;6597;52.218;9.882;2022-10-26T10:10:06;4.30;;;1.30;;
13061;SDS011;6597;52.218;9.882;2022-10-26T10:12:39;3.80;;;1.92;;
13061;SDS011;6597;52.218;9.882;2022-10-26T10:15:12;2.70;;;1.73;;
13061;SDS011;6597;52.218;9.882;2022-10-26T10:17:45;3.60;;;1.60;;
13061;SDS011;6597;52.218;9.882;2022-10-26T10:20:16;3.70;;;1.70;;
13061;SDS011;6597;52.218;9.882;2022-10-26T10:22:52;6.10;;;1.63;;
13061;SDS011;6597;52.218;9.882;2022-10-26T10:25:30;3.35;;;1.70;;
13061;SDS011;6597;52.218;9.882;2022-10-26T10:27:59;3.00;;;1.70;;
13061;SDS011;6597;52.218;9.882;2022-10-26T10:30:27;4.80;;;1.52;;
13061;SDS011;6597;52.218;9.882;2022-10-26T10:33:05;4.93;;;1.50;;
13061;SDS011;6597;52.218;9.882;2022-10-26T10:35:33;0.90;;;0.80;;
13061;SDS011;6597;52.218;9.882;2022-10-26T10:37:59;4.18;;;1.25;;
13061;SDS011;6597;52.218;9.882;2022-10-26T10:40:28;2.58;;;1.13;;
13061;SDS011;6597;52.218;9.882;2022-10-26T10:43:02;1.42;;;1.00;;
13061;SDS011;6597;52.218;9.882;2022-10-26T10:45:32;5.97;;;1.40;;
13061;SDS011;6597;52.218;9.882;2022-10-26T10:48:01;9.20;;;1.00;;
13061;SDS011;6597;52.218;9.882;2022-10-26T10:50:30;4.07;;;1.10;;
13061;SDS011;6597;52.218;9.882;2022-10-26T10:53:15;2.28;;;1.10;;
13061;SDS011;6597;52.218;9.882;2022-10-26T10:55:49;2.47;;;1.13;;
13061;SDS011;6597;52.218;9.882;2022-10-26T10:58:26;2.72;;;1.20;;
13061;SDS011;6597;52.218;9.882;2022-10-26T11:00:59;2.22;;;1.25;;
13061;SDS011;6597;52.218;9.882;2022-10-26T11:03:31;3.28;;;1.50;;
13061;SDS011;6597;52.218;9.882;2022-10-26T11:06:10;5.75;;;1.17;;
13061;SDS011;6597;52.218;9.882;2022-10-26T11:08:42;5.28;;;1.45;;
13061;SDS011;6597;52.218;9.882;2022-10-26T11:11:16;5.90;;;1.30;;
13061;SDS011;6597;52.218;9.882;2022-10-26T11:13:47;1.65;;;1.00;;
13061;SDS011;6597;52.218;9.882;2022-10-26T11:16:19;1.13;;;0.90;;
13061;SDS011;6597;52.218;9.882;2022-10-26T11:18:51;1.05;;;0.95;;
13061;SDS011;6597;52.218;9.882;2022-10-26T11:21:24;3.42;;;1.00;;
13061;SDS011;6597;52.218;9.882;2022-10-26T11:23:55;1.75;;;1.00;;
13061;SDS011;6597;52.218;9.882;2022-10-26T11:26:37;4.35;;;1.00;;
13061;SDS011;6597;52.218;9.882;2022-10-26T11:29:10;1.15;;;0.90;;
13061;SDS011;6597;52.218;9.882;2022-10-26T11:31:49;8.63;;;1.10;;
13061;SDS011;6597;52.218;9.882;2022-10-26T11:34:20;1.08;;;0.85;;
13061;SDS011;6597;52.218;9.882;2022-10-26T11:36:53;2.42;;;0.88;;
13061;SDS011;6597;52.218;9.882;2022-10-26T11:39:27;1.55;;;1.02;;
13061;SDS011;6597;52.218;9.882;2022-10-26T11:42:05;2.03;;;1.05;;
13061;SDS011;6597;52.218;9.882;2022-10-26T11:44:41;1.63;;;1.00;;
13061;SDS011;6597;52.218;9.882;2022-10-26T11:47:11;1.52;;;0.88;;
13061;SDS011;6597;52.218;9.882;2022-10-26T11:49:41;2.42;;;0.85;;
13061;SDS011;6597;52.218;9.882;2022-10-26T11:52:13;0.85;;;0.68;;
13061;SDS011;6597;52.218;9.882;2022-10-26T11:54:47;2.35;;;1.20;;
13061;SDS011;6597;52.218;9.882;2022-10-26T11:57:19;2.25;;;1.00;;
13061;SDS011;6597;52.218;9.882;2022-10-26T11:59:49;1.50;;;1.00;;
13061;SDS011;6597;52.218;9.882;2022-10-26T12:02:18;1.58;;;1.17;;
13061;SDS011;6597;52.218;9.882;2022-10-26T12:04:48;0.80;;;0.73;;
13061;SDS011;6597;52.218;9.882;2022-10-26T12:07:21;1.70;;;0.95;;
13061;SDS011;6597;52.218;9.882;2022-10-26T12:09:51;2.72;;;1.17;;
13061;SDS011;6597;52.218;9.882;2022-10-26T12:12:22;3.20;;;1.08;;
13061;SDS011;6597;52.218;9.882;2022-10-26T12:14:55;1.05;;;0.82;;
13061;SDS011;6597;52.218;9.882;2022-10-26T12:17:31;5.47;;;1.05;;
13061;SDS011;6597;52.218;9.882;2022-10-26T12:20:05;9.05;;;1.13;;
13061;SDS011;6597;52.218;9.882;2022-10-26T12:22:48;2.30;;;0.85;;
13061;SDS011;6597;52.218;9.882;2022-10-26T12:25:19;6.70;;;0.80;;
13061;SDS011;6597;52.218;9.882;2022-10-26T12:27:52;1.70;;;0.90;;
13061;SDS011;6597;52.218;9.882;2022-10-26T12:30:24;1.17;;;1.00;;
13061;SDS011;6597;52.218;9.882;2022-10-26T12:32:53;1.27;;;0.75;;
13061;SDS011;6597;52.218;9.882;2022-10-26T12:35:28;1.58;;;0.93;;
13061;SDS011;6597;52.218;9.882;2022-10-26T12:38:00;1.40;;;0.70;;
13061;SDS011;6597;52.218;9.882;2022-10-26T12:40:48;2.95;;;1.00;;
13061;SDS011;6597;52.218;9.882;2022-10-26T12:43:35;1.55;;;0.80;;
13061;SDS011;6597;52.218;9.882;2022-10-26T12:49:06;4.80;;;0.90;;
13061;SDS011;6597;52.218;9.882;2022-10-26T12:52:16;1.40;;;0.98;;
13061;SDS011;6597;52.218;9.882;2022-10-26T12:54:45;3.25;;;1.10;;
13061;SDS011;6597;52.218;9.882;2022-10-26T12:57:27;4.78;;;1.05;;
13061;SDS011;6597;52.218;9.882;2022-10-26T13:00:04;6.07;;;1.40;;
13061;SDS011;6597;52.218;9.882;2022-10-26T13:02:42;1.85;;;1.23;;
13061;SDS011;6597;52.218;9.882;2022-10-26T13:05:29;5.78;;;1.20;;
13061;SDS011;6597;52.218;9.882;2022-10-26T13:08:09;2.15;;;1.08;;
13061;SDS011;6597;52.218;9.882;2022-10-26T13:10:39;2.20;;;1.15;;
13061;SDS011;6597;52.218;9.882;2022-10-26T13:13:17;2.45;;;1.20;;
13061;SDS011;6597;52.218;9.882;2022-10-26T13:15:52;2.70;;;1.17;;
13061;SDS011;6597;52.218;9.882;2022-10-26T13:18:20;2.60;;;1.27;;
13061;SDS011;6597;52.218;9.882;2022-10-26T13:20:51;3.60;;;1.08;;
13061;SDS011;6597;52.218;9.882;2022-10-26T13:23:24;2.60;;;1.00;;
13061;SDS011;6597;52.218;9.882;2022-10-26T13:26:03;2.10;;;1.30;;
13061;SDS011;6597;52.218;9.882;2022-10-26T13:28:34;3.13;;;0.93;;
13061;SDS011;6597;52.218;9.882;2022-10-26T13:31:11;2.22;;;1.20;;
13061;SDS011;6597;52.218;9.882;2022-10-26T13:33:45;2.22;;;1.10;;
13061;SDS011;6597;52.218;9.882;2022-10-26T13:36:16;3.45;;;1.45;;
13061;SDS011;6597;52.218;9.882;2022-10-26T13:38:59;2.97;;;1.15;;
13061;SDS011;6597;52.218;9.882;2022-10-26T13:41:31;4.45;;;1.30;;
13061;SDS011;6597;52.218;9.882;2022-10-26T13:44:02;3.13;;;1.20;;
13061;SDS011;6597;52.218;9.882;2022-10-26T13:46:33;1.83;;;1.13;;
13061;SDS011;6597;52.218;9.882;2022-10-26T13:49:04;1.02;;;0.93;;
13061;SDS011;6597;52.218;9.882;2022-10-26T13:51:39;6.95;;;1.48;;
13061;SDS011;6597;52.218;9.882;2022-10-26T13:54:13;1.73;;;1.13;;
13061;SDS011;6597;52.218;9.882;2022-10-26T13:56:52;1.38;;;1.27;;
13061;SDS011;6597;52.218;9.882;2022-10-26T13:59:24;3.08;;;1.10;;
13061;SDS011;6597;52.218;9.882;2022-10-26T14:02:13;2.75;;;1.10;;
13061;SDS011;6597;52.218;9.882;2022-10-26T14:04:44;4.30;;;1.08;;
13061;SDS011;6597;52.218;9.882;2022-10-26T14:07:14;4.63;;;1.40;;
13061;SDS011;6597;52.218;9.882;2022-10-26T14:09:48;3.08;;;1.40;;
13061;SDS011;6597;52.218;9.882;2022-10-26T14:12:16;3.78;;;1.30;;
13061;SDS011;6597;52.218;9.882;2022-10-26T14:14:42;2.65;;;1.30;;
13061;SDS011;6597;52.218;9.882;2022-10-26T14:17:14;1.83;;;1.20;;
13061;SDS011;6597;52.218;9.882;2022-10-26T14:19:44;5.63;;;1.15;;
13061;SDS011;6597;52.218;9.882;2022-10-26T14:22:14;3.63;;;1.13;;
13061;SDS011;6597;52.218;9.882;2022-10-26T14:24:49;2.15;;;1.48;;
13061;SDS011;6597;52.218;9.882;2022-10-26T14:27:17;2.08;;;1.20;;
13061;SDS011;6597;52.218;9.882;2022-10-26T14:29:46;1.15;;;1.02;;
13061;SDS011;6597;52.218;9.882;2022-10-26T14:32:20;2.63;;;1.30;;
13061;SDS011;6597;52.218;9.882;2022-10-26T14:34:48;4.43;;;1.17;;
13061;SDS011;6597;52.218;9.882;2022-10-26T14:37:19;2.35;;;1.15;;
13061;SDS011;6597;52.218;9.882;2022-10-26T14:39:50;2.47;;;1.00;;
13061;SDS011;6597;52.218;9.882;2022-10-26T14:42:19;4.18;;;1.40;;
13061;SDS011;6597;52.218;9.882;2022-10-26T14:44:52;4.90;;;1.42;;
13061;SDS011;6597;52.218;9.882;2022-10-26T14:47:22;3.42;;;1.50;;
13061;SDS011;6597;52.218;9.882;2022-10-26T14:49:49;3.92;;;1.42;;
13061;SDS011;6597;52.218;9.882;2022-10-26T14:52:19;6.40;;;1.20;;
13061;SDS011;6597;52.218;9.882;2022-10-26T14:54:57;2.00;;;1.20;;
13061;SDS011;6597;52.218;9.882;2022-10-26T14:57:29;3.03;;;1.60;;
13061;SDS011;6597;52.218;9.882;2022-10-26T14:59:59;3.97;;;1.35;;
13061;SDS011;6597;52.218;9.882;2022-10-26T15:02:27;10.30;;;1.65;;
13061;SDS011;6597;52.218;9.882;2022-10-26T15:04:58;1.48;;;1.13;;
13061;SDS011;6597;52.218;9.882;2022-10-26T15:07:33;2.58;;;1.33;;
13061;SDS011;6597;52.218;9.882;2022-10-26T15:10:02;2.58;;;1.42;;
13061;SDS011;6597;52.218;9.882;2022-10-26T15:12:30;4.45;;;1.75;;
13061;SDS011;6597;52.218;9.882;2022-10-26T15:14:59;3.50;;;1.73;;
13061;SDS011;6597;52.218;9.882;2022-10-26T15:17:38;2.28;;;1.52;;
13061;SDS011;6597;52.218;9.882;2022-10-26T15:20:11;3.50;;;1.45;;
13061;SDS011;6597;52.218;9.882;2022-10-26T15:22:42;6.80;;;1.52;;
13061;SDS011;6597;52.218;9.882;2022-10-26T15:25:15;4.85;;;1.75;;
13061;SDS011;6597;52.218;9.882;2022-10-26T15:27:44;3.63;;;1.50;;
13061;SDS011;6597;52.218;9.882;2022-10-26T15:30:19;1.42;;;1.33;;
13061;SDS011;6597;52.218;9.882;2022-10-26T15:32:49;2.30;;;1.42;;